Time;durP1;ratioP1;P1;durP2;ratioP2;P2;SDS_P1;SDS_P2;PMS_P1;PMS_P2;Temp;Humidity;BMP_temperature;BMP_pressure;BME280_temperature;BME280_humidity;BME280_pressure;Samples;Min_cycle;Max_cycle;Signal;HPM_P1;HPM_P2
2020/12/28 00:02:11;;;;;;;1.47;0.73;;;3.90;99.90;;;;;;5061294;28;20168;-85
2020/12/28 00:04:37;;;;;;;2.03;1.13;;;3.80;99.90;;;;;;5059511;28;20212;-85
2020/12/28 00:07:04;;;;;;;1.80;1.37;;;3.80;99.90;;;;;;5061806;28;20411;-85
2020/12/28 00:09:30;;;;;;;1.30;0.60;;;3.80;99.90;;;;;;5059976;28;20466;-85
2020/12/28 00:11:56;;;;;;;1.13;1.00;;;3.80;99.90;;;;;;5061842;28;20507;-85
2020/12/28 00:14:23;;;;;;;1.27;1.17;;;3.80;99.90;;;;;;5068685;28;20742;-85
2020/12/28 00:16:49;;;;;;;2.90;1.63;;;3.80;99.90;;;;;;5055428;28;20584;-85
2020/12/28 00:19:16;;;;;;;1.80;1.13;;;3.80;99.90;;;;;;5059584;28;20533;-84
2020/12/28 00:21:42;;;;;;;1.30;1.20;;;3.80;99.90;;;;;;5059555;28;20491;-85
2020/12/28 00:24:07;;;;;;;2.17;0.77;;;3.80;99.90;;;;;;5061953;28;20420;-84
2020/12/28 00:26:43;;;;;;;1.97;1.67;;;3.80;99.90;;;;;;5060890;28;20412;-85
2020/12/28 00:29:10;;;;;;;1.37;1.07;;;3.90;99.90;;;;;;5060304;28;20640;-84
2020/12/28 00:31:36;;;;;;;3.67;1.93;;;3.90;99.90;;;;;;5069201;28;20994;-85
2020/12/28 00:34:02;;;;;;;2.07;1.37;;;3.90;99.90;;;;;;5066584;28;20415;-85
2020/12/28 00:36:28;;;;;;;2.80;1.50;;;3.90;99.90;;;;;;5062180;28;20613;-85
2020/12/28 00:38:54;;;;;;;2.37;1.23;;;3.90;99.90;;;;;;5060589;28;20502;-85
2020/12/28 00:41:20;;;;;;;2.50;1.03;;;3.90;99.90;;;;;;5061141;28;20403;-85
2020/12/28 00:43:45;;;;;;;1.80;1.10;;;3.90;99.90;;;;;;5068989;28;20231;-84
2020/12/28 00:46:13;;;;;;;0.97;0.60;;;4.00;99.90;;;;;;5060266;28;20645;-85
2020/12/28 00:48:38;;;;;;;2.33;1.37;;;4.00;99.90;;;;;;5061249;28;20165;-85
2020/12/28 00:51:04;;;;;;;1.83;1.20;;;4.00;99.90;;;;;;5069721;28;20421;-85
2020/12/28 00:53:30;;;;;;;2.90;1.27;;;4.00;99.90;;;;;;5078636;28;20223;-84
2020/12/28 00:55:57;;;;;;;1.90;1.10;;;4.00;99.90;;;;;;5080378;28;20924;-85
2020/12/28 00:58:23;;;;;;;2.30;1.80;;;4.00;99.90;;;;;;5064753;28;20462;-85
2020/12/28 01:00:49;;;;;;;1.50;0.90;;;4.00;99.90;;;;;;5063180;28;20456;-85
2020/12/28 01:03:15;;;;;;;1.13;0.50;;;4.00;99.90;;;;;;5064933;28;20208;-85
2020/12/28 01:05:42;;;;;;;1.33;0.73;;;4.00;99.90;;;;;;5071504;28;20419;-85
2020/12/28 01:08:07;;;;;;;2.00;0.93;;;4.00;99.90;;;;;;5062838;28;20419;-84
2020/12/28 01:10:33;;;;;;;1.27;1.10;;;4.00;99.90;;;;;;5063262;28;20494;-85
2020/12/28 01:12:58;;;;;;;2.00;0.83;;;4.00;99.90;;;;;;5064360;28;20177;-85
2020/12/28 01:15:25;;;;;;;2.30;0.40;;;4.00;99.90;;;;;;5063340;28;20688;-84
2020/12/28 01:17:51;;;;;;;1.43;1.13;;;4.10;99.90;;;;;;5062967;28;20268;-85
2020/12/28 01:20:17;;;;;;;1.80;1.00;;;4.10;99.90;;;;;;5064496;28;20545;-85
2020/12/28 01:22:42;;;;;;;1.27;1.03;;;4.10;99.90;;;;;;5060072;28;20183;-85
2020/12/28 01:25:08;;;;;;;2.53;1.27;;;4.10;99.90;;;;;;5056700;28;20192;-85
2020/12/28 01:27:33;;;;;;;1.80;0.83;;;4.10;99.90;;;;;;5053832;28;20169;-85
2020/12/28 01:29:59;;;;;;;1.80;1.10;;;4.20;99.90;;;;;;5055121;28;20173;-85
2020/12/28 01:32:24;;;;;;;1.67;1.13;;;4.20;99.90;;;;;;5055035;28;20220;-85
2020/12/28 01:34:50;;;;;;;2.70;1.00;;;4.20;99.90;;;;;;5055029;28;20189;-85
2020/12/28 01:37:15;;;;;;;2.00;0.87;;;4.20;99.90;;;;;;5054596;28;20205;-85
2020/12/28 01:39:42;;;;;;;2.80;0.93;;;4.20;99.90;;;;;;5054924;28;20203;-84
2020/12/28 01:42:08;;;;;;;1.57;1.00;;;4.20;99.90;;;;;;5054643;28;20169;-84
2020/12/28 01:44:34;;;;;;;2.40;1.00;;;4.30;99.90;;;;;;5054780;28;20499;-85
2020/12/28 01:46:59;;;;;;;4.83;1.00;;;4.30;99.90;;;;;;5054814;28;20471;-85
2020/12/28 01:49:25;;;;;;;1.83;0.90;;;4.30;99.90;;;;;;5054823;28;20386;-85
2020/12/28 01:51:51;;;;;;;0.83;0.67;;;4.30;99.90;;;;;;5053358;28;20170;-84
2020/12/28 01:54:20;;;;;;;1.43;0.87;;;4.30;99.90;;;;;;5054711;28;20283;-85
2020/12/28 01:56:47;;;;;;;1.27;1.00;;;4.30;99.90;;;;;;5053397;28;20439;-85
2020/12/28 01:59:14;;;;;;;1.90;1.27;;;4.30;99.90;;;;;;5053313;28;20468;-85
2020/12/28 02:01:41;;;;;;;2.90;0.97;;;4.30;99.90;;;;;;5054395;28;20408;-85
2020/12/28 02:04:07;;;;;;;3.10;1.10;;;4.30;99.90;;;;;;5054375;28;20456;-85
2020/12/28 02:06:33;;;;;;;3.03;1.07;;;4.30;99.90;;;;;;5053211;28;20470;-85
2020/12/28 02:08:59;;;;;;;1.53;1.43;;;4.30;99.90;;;;;;5054037;28;20419;-84
2020/12/28 02:11:27;;;;;;;1.80;1.70;;;4.30;99.90;;;;;;5054156;28;20257;-84
2020/12/28 02:13:53;;;;;;;1.17;0.70;;;4.30;99.90;;;;;;5054150;28;20187;-85
2020/12/28 02:16:19;;;;;;;2.97;1.17;;;4.30;99.90;;;;;;5054142;28;20421;-85
2020/12/28 02:18:45;;;;;;;1.03;0.70;;;4.40;99.90;;;;;;5054235;28;20460;-85
2020/12/28 02:21:10;;;;;;;3.30;1.73;;;4.40;99.90;;;;;;5052975;28;20170;-84
2020/12/28 02:23:36;;;;;;;0.80;0.60;;;4.40;99.90;;;;;;5053751;28;20180;-84
2020/12/28 02:26:02;;;;;;;1.30;1.20;;;4.40;99.90;;;;;;5054055;28;20173;-86
2020/12/28 02:28:28;;;;;;;1.60;0.67;;;4.40;99.90;;;;;;5054071;28;20180;-85
2020/12/28 02:30:53;;;;;;;2.00;1.03;;;4.40;99.90;;;;;;5052863;28;20174;-87
2020/12/28 02:33:19;;;;;;;1.10;0.93;;;4.30;99.90;;;;;;5053911;28;20199;-86
2020/12/28 02:35:44;;;;;;;0.73;0.60;;;4.30;99.90;;;;;;5053975;28;20177;-85
2020/12/28 02:38:10;;;;;;;1.07;0.87;;;4.30;99.90;;;;;;5053383;28;20216;-85
2020/12/28 02:40:36;;;;;;;3.80;1.47;;;4.30;99.90;;;;;;5053744;28;20570;-85
2020/12/28 02:43:01;;;;;;;1.53;1.43;;;4.30;99.90;;;;;;5052514;28;20287;-86
2020/12/28 02:45:27;;;;;;;1.70;1.43;;;4.30;99.90;;;;;;5054663;28;20173;-85
2020/12/28 02:47:52;;;;;;;2.17;1.07;;;4.30;99.90;;;;;;5063074;28;20538;-86
2020/12/28 02:50:18;;;;;;;1.87;1.20;;;4.30;99.90;;;;;;5070240;28;20227;-86
2020/12/28 02:52:44;;;;;;;1.77;0.93;;;4.30;99.90;;;;;;5051967;28;20586;-85
2020/12/28 02:55:11;;;;;;;2.30;1.43;;;4.30;99.90;;;;;;5053636;28;20559;-86
2020/12/28 02:57:36;;;;;;;2.17;0.80;;;4.30;99.90;;;;;;5062057;28;20596;-86
2020/12/28 03:00:04;;;;;;;1.90;0.60;;;4.40;99.90;;;;;;5073486;28;20473;-86
2020/12/28 03:02:29;;;;;;;2.43;1.13;;;4.40;99.90;;;;;;5089041;28;20659;-86
2020/12/28 03:04:55;;;;;;;1.07;0.70;;;4.40;99.90;;;;;;5073216;28;20463;-85
2020/12/28 03:07:20;;;;;;;2.03;1.30;;;4.40;99.90;;;;;;5072838;28;20181;-85
2020/12/28 03:09:46;;;;;;;1.10;0.60;;;4.30;99.90;;;;;;5073248;28;20256;-86
2020/12/28 03:12:11;;;;;;;1.33;0.53;;;4.40;99.90;;;;;;5073337;28;20632;-86
2020/12/28 03:14:37;;;;;;;1.47;0.87;;;4.30;99.90;;;;;;5071627;28;20168;-86
2020/12/28 03:17:02;;;;;;;1.07;0.47;;;4.40;99.90;;;;;;5073194;28;20215;-85
2020/12/28 03:19:28;;;;;;;2.37;1.00;;;4.40;99.90;;;;;;5071930;28;20177;-84
2020/12/28 03:21:56;;;;;;;1.83;0.70;;;4.40;99.90;;;;;;5072839;28;20625;-84
2020/12/28 03:24:22;;;;;;;1.80;0.70;;;4.40;99.90;;;;;;5073162;28;20497;-84
2020/12/28 03:26:48;;;;;;;1.77;0.50;;;4.40;99.90;;;;;;5073086;28;20447;-84
2020/12/28 03:29:13;;;;;;;1.67;0.83;;;4.40;99.90;;;;;;5073092;28;20208;-84
2020/12/28 03:31:39;;;;;;;1.80;0.97;;;4.40;99.90;;;;;;5073079;28;20183;-85
2020/12/28 03:34:06;;;;;;;1.10;1.00;;;4.40;99.90;;;;;;5071806;28;20219;-84
2020/12/28 03:36:32;;;;;;;2.03;1.07;;;4.50;99.90;;;;;;5073039;28;20419;-84
2020/12/28 03:38:57;;;;;;;1.40;0.70;;;4.50;99.90;;;;;;5072611;28;20481;-85
2020/12/28 03:41:23;;;;;;;1.20;0.70;;;4.50;99.90;;;;;;5071624;28;20176;-84
2020/12/28 03:43:48;;;;;;;1.80;0.67;;;4.50;99.90;;;;;;5071693;28;20219;-84
2020/12/28 03:46:14;;;;;;;0.80;0.57;;;4.40;99.90;;;;;;5072946;28;20696;-84
2020/12/28 03:48:40;;;;;;;1.70;0.70;;;4.50;99.90;;;;;;5072899;28;20513;-84
2020/12/28 03:51:05;;;;;;;1.63;1.00;;;4.50;99.90;;;;;;5072884;28;20165;-84
2020/12/28 03:53:31;;;;;;;1.43;1.20;;;4.50;99.90;;;;;;5072503;28;20301;-84
2020/12/28 03:55:56;;;;;;;1.80;0.73;;;4.50;99.90;;;;;;5071462;28;20196;-84
2020/12/28 03:58:22;;;;;;;4.53;1.10;;;4.50;99.90;;;;;;5072684;28;20211;-84
2020/12/28 04:00:47;;;;;;;0.90;0.47;;;4.60;99.90;;;;;;5072783;28;20212;-84
2020/12/28 04:03:13;;;;;;;1.30;0.63;;;4.60;99.90;;;;;;5072595;28;20220;-85
2020/12/28 04:05:38;;;;;;;1.50;0.70;;;4.60;99.90;;;;;;5072787;28;20203;-86
2020/12/28 04:08:06;;;;;;;0.93;0.50;;;4.60;99.90;;;;;;5072402;28;20179;-85
2020/12/28 04:10:32;;;;;;;0.80;0.33;;;4.60;99.90;;;;;;5072659;28;20193;-85
2020/12/28 04:12:58;;;;;;;0.80;0.57;;;4.60;99.90;;;;;;5088255;28;20459;-85
2020/12/28 04:15:24;;;;;;;0.87;0.60;;;4.60;99.90;;;;;;5067607;28;20440;-85
2020/12/28 04:17:50;;;;;;;0.87;0.87;;;4.70;99.90;;;;;;5072560;28;20238;-85
2020/12/28 04:20:15;;;;;;;1.60;0.50;;;4.70;99.90;;;;;;5072708;28;20181;-86
2020/12/28 04:22:41;;;;;;;1.20;0.40;;;4.70;99.90;;;;;;5072227;28;20169;-85
2020/12/28 04:25:07;;;;;;;1.47;0.33;;;4.70;99.90;;;;;;5072565;28;20648;-85
2020/12/28 04:27:32;;;;;;;1.40;1.07;;;4.70;99.90;;;;;;5076106;28;20259;-85
2020/12/28 04:29:58;;;;;;;0.80;0.50;;;4.70;99.90;;;;;;5076297;28;20415;-86
2020/12/28 04:32:23;;;;;;;2.20;0.30;;;4.80;99.90;;;;;;5091986;28;20261;-85
2020/12/28 04:34:49;;;;;;;1.27;0.50;;;4.70;99.90;;;;;;5076267;28;20625;-85
2020/12/28 04:37:14;;;;;;;3.00;0.40;;;4.70;99.90;;;;;;5075990;28;20247;-86
2020/12/28 04:39:40;;;;;;;1.13;0.50;;;4.70;99.90;;;;;;5076115;28;20181;-86
2020/12/28 04:42:06;;;;;;;4.00;1.07;;;4.70;99.90;;;;;;5076107;28;20173;-85
2020/12/28 04:44:31;;;;;;;0.70;0.37;;;4.70;99.90;;;;;;5075943;28;20259;-86
2020/12/28 04:46:57;;;;;;;1.00;0.47;;;4.70;99.90;;;;;;5076009;28;20230;-86
2020/12/28 04:49:23;;;;;;;1.03;0.50;;;4.70;99.90;;;;;;5075976;28;20183;-86
2020/12/28 04:51:53;;;;;;;1.03;0.60;;;4.80;99.90;;;;;;5075549;28;20175;-86
2020/12/28 04:54:19;;;;;;;1.40;0.47;;;4.80;99.90;;;;;;5066101;28;20978;-86
2020/12/28 04:56:44;;;;;;;1.27;0.70;;;4.80;99.90;;;;;;5063557;28;20424;-86
2020/12/28 04:59:10;;;;;;;0.73;0.40;;;4.70;99.90;;;;;;5079051;28;20217;-85
2020/12/28 05:01:36;;;;;;;0.97;0.30;;;4.80;99.90;;;;;;5065695;28;20211;-86
2020/12/28 05:04:01;;;;;;;1.20;0.60;;;4.80;99.90;;;;;;5063974;28;20248;-86
2020/12/28 05:06:27;;;;;;;0.50;0.20;;;4.80;99.90;;;;;;5063773;28;20251;-86
2020/12/28 05:08:54;;;;;;;0.50;0.40;;;4.80;99.90;;;;;;5072502;28;20173;-85
2020/12/28 05:11:20;;;;;;;0.40;0.20;;;4.80;99.90;;;;;;5064045;28;20208;-84
2020/12/28 05:13:49;;;;;;;2.87;0.73;;;4.80;99.90;;;;;;5079677;28;20468;-83
2020/12/28 05:16:15;;;;;;;0.47;0.30;;;4.80;99.90;;;;;;5062326;28;20412;-86
2020/12/28 05:18:41;;;;;;;0.57;0.57;;;4.70;99.90;;;;;;5063071;28;20512;-86
2020/12/28 05:21:07;;;;;;;1.93;0.20;;;4.70;99.90;;;;;;5066108;28;20534;-87
2020/12/28 05:23:33;;;;;;;0.60;0.53;;;4.70;99.90;;;;;;5070324;28;20418;-86
2020/12/28 05:25:59;;;;;;;0.77;0.50;;;4.70;99.90;;;;;;5054801;28;20522;-87
2020/12/28 05:28:32;;;;;;;0.70;0.50;;;4.70;99.90;;;;;;5055923;28;20425;-86
2020/12/28 05:30:59;;;;;;;1.70;0.53;;;4.70;99.90;;;;;;5062746;28;20531;-87
2020/12/28 05:33:31;;;;;;;3.23;0.70;;;4.70;99.90;;;;;;5071838;28;20423;-86
2020/12/28 05:35:57;;;;;;;0.80;0.20;;;4.70;99.90;;;;;;5075160;28;20411;-86
2020/12/28 05:38:25;;;;;;;0.40;0.30;;;4.60;99.90;;;;;;5055223;28;20563;-86
2020/12/28 05:41:04;;;;;;;0.73;0.40;;;4.60;99.90;;;;;;5053880;28;20424;-85
2020/12/28 05:43:30;;;;;;;0.80;0.50;;;4.50;99.90;;;;;;5055059;28;20415;-85
2020/12/28 05:45:56;;;;;;;1.13;0.70;;;4.50;99.90;;;;;;5070208;28;20408;-86
2020/12/28 05:48:25;;;;;;;2.67;0.73;;;4.50;99.90;;;;;;5054886;28;20506;-85
2020/12/28 05:50:56;;;;;;;1.63;0.53;;;4.50;99.90;;;;;;5054828;28;20408;-86
2020/12/28 05:53:26;;;;;;;1.17;0.77;;;4.50;99.90;;;;;;5054377;28;20450;-85
2020/12/28 05:55:52;;;;;;;2.27;0.50;;;4.40;99.90;;;;;;5054730;28;20423;-85
2020/12/28 05:58:20;;;;;;;2.03;0.83;;;4.40;99.90;;;;;;5069998;28;20467;-85
2020/12/28 06:00:48;;;;;;;1.60;1.03;;;4.40;99.90;;;;;;5054542;28;20757;-85
2020/12/28 06:03:23;;;;;;;3.33;1.23;;;4.40;99.90;;;;;;5054314;28;20470;-85
2020/12/28 06:05:52;;;;;;;1.60;0.87;;;4.40;99.90;;;;;;5054565;28;20415;-84
2020/12/28 06:08:18;;;;;;;1.60;1.27;;;4.30;99.90;;;;;;5054123;28;20416;-85
2020/12/28 06:10:43;;;;;;;2.23;0.90;;;4.30;99.90;;;;;;5069822;28;20496;-84
2020/12/28 06:13:09;;;;;;;1.53;0.83;;;4.30;99.90;;;;;;5069770;28;20197;-84
2020/12/28 06:15:34;;;;;;;3.37;1.27;;;4.30;99.90;;;;;;5054236;28;20166;-84
2020/12/28 06:18:00;;;;;;;3.33;1.17;;;4.30;99.90;;;;;;5069563;28;20220;-84
2020/12/28 06:20:31;;;;;;;1.13;0.50;;;4.30;99.90;;;;;;5069571;28;20174;-85
2020/12/28 06:23:04;;;;;;;1.53;0.93;;;4.20;99.90;;;;;;5053929;28;20168;-86
2020/12/28 06:25:30;;;;;;;3.37;1.57;;;4.30;99.90;;;;;;5069516;28;20412;-85
2020/12/28 06:27:55;;;;;;;1.67;0.90;;;4.20;99.90;;;;;;5054104;28;20503;-85
2020/12/28 06:30:22;;;;;;;2.97;1.10;;;4.20;99.90;;;;;;5054044;28;20169;-85
2020/12/28 06:33:03;;;;;;;3.70;1.40;;;4.10;99.90;;;;;;5054028;28;20183;-86
2020/12/28 06:35:29;;;;;;;1.67;1.40;;;4.10;99.90;;;;;;5069378;28;20760;-86
2020/12/28 06:37:58;;;;;;;1.50;0.90;;;4.10;99.90;;;;;;5053541;28;20886;-86
2020/12/28 06:40:35;;;;;;;1.93;0.93;;;4.10;99.90;;;;;;5053822;28;20412;-85
2020/12/28 06:43:17;;;;;;;2.17;0.77;;;4.10;99.90;;;;;;5053766;28;20439;-85
2020/12/28 06:45:44;;;;;;;1.03;0.57;;;4.10;99.90;;;;;;5053846;28;20481;-85
2020/12/28 06:48:23;;;;;;;2.50;1.03;;;4.10;99.90;;;;;;5053093;28;20427;-86
2020/12/28 06:50:51;;;;;;;2.37;1.70;;;4.10;99.90;;;;;;5069309;28;20435;-83
2020/12/28 06:53:26;;;;;;;1.53;1.00;;;4.10;99.90;;;;;;5053330;28;20411;-86
2020/12/28 06:55:52;;;;;;;2.37;0.87;;;4.10;99.90;;;;;;5053652;28;20411;-83
2020/12/28 06:58:18;;;;;;;2.83;0.80;;;4.10;99.90;;;;;;5053614;28;20463;-84
2020/12/28 07:00:44;;;;;;;3.13;1.10;;;4.10;99.90;;;;;;5052248;28;20419;-85
2020/12/28 07:03:12;;;;;;;1.73;1.13;;;4.10;99.90;;;;;;5053318;28;20464;-84
2020/12/28 07:05:39;;;;;;;1.87;0.97;;;4.00;99.90;;;;;;5068899;28;20440;-84
2020/12/28 07:08:05;;;;;;;2.10;0.80;;;3.90;99.90;;;;;;5053201;28;20810;-84
2020/12/28 07:10:30;;;;;;;3.60;0.90;;;3.90;99.90;;;;;;5054231;28;20426;-84
2020/12/28 07:13:02;;;;;;;1.90;1.00;;;3.80;99.90;;;;;;5057718;28;20232;-84
2020/12/28 07:15:28;;;;;;;2.80;1.30;;;3.80;99.90;;;;;;5073094;28;20234;-84
2020/12/28 07:17:54;;;;;;;3.10;1.50;;;3.70;99.90;;;;;;5073076;28;20454;-84
2020/12/28 07:20:19;;;;;;;6.10;1.70;;;3.70;99.90;;;;;;5073204;28;20172;-84
2020/12/28 07:22:45;;;;;;;2.20;1.17;;;3.70;99.90;;;;;;5072774;28;20252;-84
2020/12/28 07:25:12;;;;;;;2.93;2.50;;;3.70;99.90;;;;;;5073072;28;20532;-85
2020/12/28 07:27:42;;;;;;;3.23;1.63;;;3.80;99.90;;;;;;5072912;28;20535;-84
2020/12/28 07:30:10;;;;;;;2.03;1.27;;;3.80;99.90;;;;;;5072906;28;20460;-85
2020/12/28 07:32:36;;;;;;;3.77;1.33;;;3.80;99.90;;;;;;5072654;28;20529;-84
2020/12/28 07:35:03;;;;;;;2.37;2.00;;;3.80;99.90;;;;;;5073028;28;20802;-84
2020/12/28 07:37:30;;;;;;;2.20;1.53;;;3.80;99.90;;;;;;5071673;28;20447;-84
2020/12/28 07:39:55;;;;;;;6.67;2.50;;;3.90;99.90;;;;;;5073005;28;20447;-85
2020/12/28 07:42:25;;;;;;;6.73;3.37;;;3.80;99.90;;;;;;5088502;28;20883;-84
2020/12/28 07:44:52;;;;;;;7.50;3.50;;;3.80;99.90;;;;;;5071740;28;20176;-84
2020/12/28 07:47:20;;;;;;;7.70;3.67;;;3.80;99.90;;;;;;5072828;28;20410;-84
2020/12/28 07:49:49;;;;;;;5.00;2.93;;;3.80;99.90;;;;;;5072839;28;20415;-84
2020/12/28 07:52:21;;;;;;;4.17;2.40;;;3.80;99.90;;;;;;5072494;28;20768;-84
2020/12/28 07:55:11;;;;;;;3.90;2.40;;;3.80;99.90;;;;;;5073004;28;20415;-85
2020/12/28 07:57:49;;;;;;;2.60;1.77;;;3.90;99.90;;;;;;5070670;28;20545;-84
2020/12/28 08:00:20;;;;;;;4.07;1.83;;;3.90;99.90;;;;;;5074499;28;20419;-84
2020/12/28 08:03:04;;;;;;;2.77;1.30;;;3.90;99.90;;;;;;5075569;28;20415;-84
2020/12/28 08:05:33;;;;;;;3.43;1.70;;;3.90;99.90;;;;;;5075540;28;20948;-85
2020/12/28 08:07:59;;;;;;;4.10;1.80;;;3.90;99.90;;;;;;5075107;28;20411;-85
2020/12/28 08:10:24;;;;;;;3.40;1.90;;;3.80;99.90;;;;;;5076510;28;20438;-84
2020/12/28 08:13:00;;;;;;;2.47;2.27;;;3.90;99.90;;;;;;5076701;28;20168;-84
2020/12/28 08:15:31;;;;;;;3.33;1.70;;;3.90;99.90;;;;;;5075404;28;20173;-84
2020/12/28 08:18:10;;;;;;;6.90;1.97;;;3.90;99.90;;;;;;5076496;28;20549;-84
2020/12/28 08:20:36;;;;;;;3.10;2.10;;;3.90;99.90;;;;;;5075067;28;20419;-84
2020/12/28 08:23:02;;;;;;;1.90;1.73;;;3.90;99.90;;;;;;5076128;28;20407;-85
2020/12/28 08:25:29;;;;;;;4.93;1.83;;;3.90;99.90;;;;;;5076393;28;20528;-84
2020/12/28 08:28:00;;;;;;;3.57;2.10;;;3.90;99.90;;;;;;5076149;28;20426;-84
2020/12/28 08:30:30;;;;;;;3.33;1.63;;;3.80;99.90;;;;;;5076306;28;20493;-84
2020/12/28 08:32:59;;;;;;;3.47;1.40;;;3.80;99.90;;;;;;5074942;28;20420;-85
2020/12/28 08:35:25;;;;;;;2.53;1.70;;;3.80;99.90;;;;;;5076186;28;20419;-85
2020/12/28 08:37:52;;;;;;;2.27;1.63;;;3.80;99.90;;;;;;5074474;28;20557;-84
2020/12/28 08:40:22;;;;;;;5.67;2.10;;;3.80;99.90;;;;;;5076083;28;20844;-85
2020/12/28 08:42:55;;;;;;;4.00;1.53;;;3.80;99.90;;;;;;5076177;28;20780;-85
2020/12/28 08:45:26;;;;;;;2.80;1.57;;;3.80;99.90;;;;;;5076066;28;20884;-84
2020/12/28 08:47:59;;;;;;;5.90;2.53;;;3.80;99.90;;;;;;5077231;28;20540;-85
2020/12/28 08:50:25;;;;;;;4.03;1.57;;;3.80;99.90;;;;;;5075991;28;20399;-84
2020/12/28 08:52:54;;;;;;;2.90;1.97;;;3.90;99.90;;;;;;5074356;28;20449;-84
2020/12/28 08:55:20;;;;;;;3.13;1.87;;;3.90;99.90;;;;;;5074451;28;20759;-85
2020/12/28 08:57:59;;;;;;;4.10;1.97;;;3.90;99.90;;;;;;5074569;28;20557;-84
2020/12/28 09:00:26;;;;;;;3.10;1.50;;;3.90;99.90;;;;;;5074757;28;20844;-84
2020/12/28 09:02:53;;;;;;;3.83;1.30;;;3.90;99.90;;;;;;5074644;28;20400;-84
2020/12/28 09:05:20;;;;;;;4.20;1.67;;;3.80;99.90;;;;;;5075826;28;20434;-84
2020/12/28 09:07:46;;;;;;;3.40;1.60;;;3.90;99.90;;;;;;5073963;28;20419;-84
2020/12/28 09:10:13;;;;;;;3.87;1.80;;;3.90;99.90;;;;;;5074431;28;20914;-84
2020/12/28 09:12:39;;;;;;;3.60;1.03;;;4.00;99.90;;;;;;5073480;28;20962;-84
2020/12/28 09:15:05;;;;;;;3.20;1.87;;;4.00;99.90;;;;;;5074263;28;20911;-84
2020/12/28 09:17:31;;;;;;;3.67;2.57;;;4.00;99.90;;;;;;5075175;28;20457;-85
2020/12/28 09:19:56;;;;;;;3.87;2.63;;;4.00;99.90;;;;;;5076414;28;20565;-84
2020/12/28 09:22:22;;;;;;;3.70;2.40;;;4.10;99.90;;;;;;5074501;28;20537;-84
2020/12/28 09:24:47;;;;;;;3.43;2.10;;;4.10;99.90;;;;;;5091203;28;20177;-84
2020/12/28 09:27:13;;;;;;;4.00;1.87;;;4.20;99.90;;;;;;5074693;28;20177;-84
2020/12/28 09:29:38;;;;;;;2.63;2.03;;;4.40;99.90;;;;;;5074984;28;20180;-85
2020/12/28 09:32:04;;;;;;;4.07;2.07;;;4.50;99.90;;;;;;5075160;28;20196;-84
2020/12/28 09:34:30;;;;;;;4.00;2.17;;;4.50;99.90;;;;;;5084564;28;20184;-85
2020/12/28 09:37:06;;;;;;;2.83;2.13;;;4.60;99.90;;;;;;5074483;28;20180;-84
2020/12/28 09:39:33;;;;;;;3.50;1.73;;;4.50;99.90;;;;;;5126785;22;20270;-85
2020/12/28 09:41:59;;;;;;;2.47;1.20;;;4.50;99.90;;;;;;5072084;28;20450;-85
2020/12/28 09:44:25;;;;;;;3.00;1.47;;;4.60;99.90;;;;;;5053344;28;20463;-85
2020/12/28 09:46:52;;;;;;;3.87;2.63;;;4.80;99.90;;;;;;5054752;28;20223;-85
2020/12/28 09:49:19;;;;;;;4.20;2.37;;;4.90;99.90;;;;;;5054688;28;20478;-85
2020/12/28 09:51:46;;;;;;;3.30;1.77;;;5.00;99.90;;;;;;5053091;28;20428;-85
2020/12/28 09:54:12;;;;;;;3.97;2.37;;;5.00;99.90;;;;;;5054371;28;20473;-85
2020/12/28 09:56:38;;;;;;;4.10;2.03;;;5.00;99.90;;;;;;5062739;28;20494;-85
2020/12/28 09:59:03;;;;;;;5.10;2.37;;;5.10;99.90;;;;;;5074319;28;20977;-86
2020/12/28 10:01:29;;;;;;;3.33;1.73;;;5.20;99.90;;;;;;5049413;28;20207;-84
2020/12/28 10:03:54;;;;;;;2.90;2.10;;;5.30;99.90;;;;;;5036411;28;20181;-85
2020/12/28 10:06:33;;;;;;;3.30;1.83;;;5.30;99.90;;;;;;5053999;28;20169;-85
2020/12/28 10:08:59;;;;;;;2.67;1.57;;;5.30;99.90;;;;;;5054268;28;20648;-85
2020/12/28 10:11:25;;;;;;;4.20;2.00;;;5.30;99.90;;;;;;5036469;28;20412;-84
2020/12/28 10:13:51;;;;;;;3.40;1.50;;;5.20;99.90;;;;;;5036229;28;20174;-84
2020/12/28 10:16:24;;;;;;;3.57;2.17;;;5.20;99.90;;;;;;5054826;28;20404;-83
2020/12/28 10:18:52;;;;;;;3.10;2.00;;;5.20;99.90;;;;;;5038191;28;20498;-85
2020/12/28 10:21:18;;;;;;;5.47;2.40;;;5.20;99.90;;;;;;5053955;28;20487;-85
2020/12/28 10:23:44;;;;;;;3.43;2.07;;;;;;;;;;5053002;28;20452;-84
2020/12/28 10:26:15;;;;;;;4.97;2.57;;;;;;;;;;5058047;28;20462;-85
2020/12/28 10:28:41;;;;;;;3.67;2.57;;;;;;;;;;5035961;28;20462;-85
2020/12/28 10:31:13;;;;;;;6.07;3.10;;;;;;;;;;5054133;28;20408;-85
2020/12/28 10:33:40;;;;;;;4.13;2.20;;;;;;;;;;5072221;28;20422;-85
2020/12/28 10:36:06;;;;;;;4.20;2.17;;;;;;;;;;5073274;28;20412;-84
2020/12/28 10:38:33;;;;;;;4.13;1.77;;;;;;;;;;5073362;28;20467;-85
2020/12/28 10:40:59;;;;;;;4.27;2.33;;;;;;;;;;5073919;28;20407;-85
2020/12/28 10:43:25;;;;;;;4.13;2.03;;;;;;;;;;5072623;28;20484;-85
2020/12/28 10:46:02;;;;;;;3.20;1.80;;;;;;;;;;5111282;27;20514;-86
2020/12/28 10:48:28;;;;;;;5.00;2.23;;;;;;;;;;5127028;28;20815;-83
2020/12/28 10:50:54;;;;;;;4.87;2.60;;;;;;;;;;5110668;28;20405;-83
2020/12/28 10:53:20;;;;;;;4.40;2.93;;;;;;;;;;5124805;28;20436;-86
2020/12/28 10:55:46;;;;;;;4.07;1.90;;;;;;;;;;5109780;28;20434;-84
2020/12/28 10:58:13;;;;;;;3.47;2.33;;;;;;;;;;5109242;28;20409;-84
2020/12/28 11:00:40;;;;;;;4.77;3.23;;;;;;;;;;5108198;28;20440;-84
2020/12/28 11:03:06;;;;;;;4.40;1.97;;;;;;;;;;5108965;28;20970;-84
2020/12/28 11:05:32;;;;;;;4.30;2.17;;;;;;;;;;5110020;28;20494;-84
2020/12/28 11:07:58;;;;;;;2.97;2.03;;;;;;;;;;5110572;28;20410;-84
2020/12/28 11:10:24;;;;;;;5.10;3.63;;;;;;;;;;5109183;28;20422;-84
2020/12/28 11:12:50;;;;;;;4.37;2.40;;;;;;;;;;5109263;28;20756;-84
2020/12/28 11:15:16;;;;;;;3.47;2.87;;;;;;;;;;5110238;28;20563;-83
2020/12/28 11:17:41;;;;;;;3.87;2.70;;;;;;;;;;5110288;28;20497;-84
2020/12/28 11:20:07;;;;;;;5.60;3.40;;;;;;;;;;5108993;28;20422;-84
2020/12/28 11:22:33;;;;;;;6.00;2.27;;;;;;;;;;5109793;28;20788;-84
2020/12/28 11:25:00;;;;;;;4.77;2.50;;;;;;;;;;5097899;28;20474;-85
2020/12/28 11:27:26;;;;;;;5.03;2.77;;;;;;;;;;5108738;28;20417;-85
2020/12/28 11:29:53;;;;;;;4.93;2.93;;;;;;;;;;5125752;28;20530;-85
2020/12/28 11:32:19;;;;;;;5.10;2.53;;;;;;;;;;5108175;28;20420;-85
2020/12/28 11:34:45;;;;;;;4.77;2.03;;;;;;;;;;5125975;28;20469;-84
2020/12/28 11:37:11;;;;;;;4.77;2.77;;;;;;;;;;5125388;28;20438;-84
2020/12/28 11:39:37;;;;;;;5.57;2.63;;;;;;;;;;5125818;28;20424;-84
2020/12/28 11:42:03;;;;;;;4.47;3.30;;;;;;;;;;5125720;28;20496;-85
2020/12/28 11:44:29;;;;;;;2.80;2.17;;;;;;;;;;5125235;28;20478;-84
2020/12/28 11:46:55;;;;;;;5.93;3.07;;;;;;;;;;5125493;28;20439;-84
2020/12/28 11:49:22;;;;;;;8.57;3.40;;;;;;;;;;5109860;28;20413;-84
2020/12/28 11:51:51;;;;;;;4.20;2.53;;;;;;;;;;5109410;28;20413;-83
2020/12/28 11:54:17;;;;;;;5.70;2.50;;;;;;;;;;5125644;28;20486;-84
2020/12/28 11:56:43;;;;;;;6.93;3.70;;;;;;;;;;5097965;28;20795;-85
2020/12/28 11:59:09;;;;;;;6.23;2.70;;;;;;;;;;5111448;28;20414;-85
2020/12/28 12:01:35;;;;;;;5.83;2.87;;;;;;;;;;5104919;28;20419;-84
2020/12/28 12:04:01;;;;;;;3.90;2.40;;;;;;;;;;5074268;28;20840;-84
2020/12/28 12:06:27;;;;;;;3.40;2.07;;;;;;;;;;5073791;28;20427;-84
2020/12/28 12:11:38;;;;;;;4.43;2.60;;;;;;;;;;5075596;28;20414;-84
2020/12/28 12:14:04;;;;;;;4.43;2.17;;;;;;;;;;5076580;28;20415;-85
2020/12/28 12:16:31;;;;;;;5.20;2.70;;;;;;;;;;5094471;28;20765;-85
2020/12/28 12:18:57;;;;;;;5.00;2.77;;;;;;;;;;5095344;28;20407;-83
2020/12/28 12:21:23;;;;;;;4.20;2.57;;;7.40;99.90;;;;;;5093625;28;20427;-84
2020/12/28 12:23:48;;;;;;;3.43;1.83;;;7.90;99.90;;;;;;5094024;28;20420;-84
2020/12/28 12:26:18;;;;;;;3.63;2.13;;;8.60;99.90;;;;;;5092674;28;20477;-85
2020/12/28 12:28:44;;;;;;;3.47;2.10;;;8.90;99.90;;;;;;5095471;28;20175;-85
2020/12/28 12:31:13;;;;;;;3.67;1.80;;;8.50;99.90;;;;;;5109609;28;20513;-84
2020/12/28 12:33:38;;;;;;;3.60;1.57;;;8.30;99.90;;;;;;5110840;28;20253;-84
2020/12/28 12:36:04;;;;;;;5.17;2.67;;;8.10;99.90;;;;;;5110243;28;20529;-84
2020/12/28 12:38:29;;;;;;;4.60;2.13;;;8.10;99.90;;;;;;5110933;28;20278;-83
2020/12/28 12:40:56;;;;;;;5.13;2.27;;;7.90;99.90;;;;;;5112302;28;20176;-84
2020/12/28 12:43:21;;;;;;;3.87;2.93;;;7.70;99.90;;;;;;5096390;28;20225;-84
2020/12/28 12:45:47;;;;;;;4.20;2.17;;;7.60;99.90;;;;;;5111345;28;21060;-84
2020/12/28 12:48:12;;;;;;;5.40;2.80;;;7.40;99.90;;;;;;5095090;28;20195;-83
2020/12/28 12:50:38;;;;;;;4.50;2.90;;;7.10;99.90;;;;;;5110576;28;20199;-84
2020/12/28 12:53:03;;;;;;;2.80;1.57;;;7.00;99.90;;;;;;5095060;28;20172;-84
2020/12/28 12:55:29;;;;;;;4.97;2.20;;;6.80;99.90;;;;;;5110424;28;20177;-85
2020/12/28 12:57:54;;;;;;;3.87;2.13;;;6.50;99.90;;;;;;5093342;28;20187;-84
2020/12/28 13:00:20;;;;;;;4.77;2.20;;;6.50;99.90;;;;;;5110339;28;20267;-85
2020/12/28 13:02:46;;;;;;;3.93;2.40;;;6.40;99.90;;;;;;5079689;28;20203;-84
2020/12/28 13:05:13;;;;;;;5.57;2.60;;;6.50;99.90;;;;;;5072472;28;20216;-85
2020/12/28 13:07:40;;;;;;;6.13;2.43;;;6.60;99.90;;;;;;5083527;28;20411;-84
2020/12/28 13:10:08;;;;;;;3.97;2.00;;;6.60;99.90;;;;;;5094459;28;21067;-84
2020/12/28 13:12:34;;;;;;;4.00;2.57;;;6.80;99.90;;;;;;5094483;28;20415;-85